Archival Weather

Chicago O'Hare International

Chicago, Illinois (KORD)

Report from: Sunday, December 4, 2022 12:51 PM CST
Current time: Friday, June 14, 2024 6:58 AM CDT

Current weather – Weather history – Daily summaries
Weather forecast

Temperature2.8°C (37.0°F)
Wind chill-1.5°C (29.3°F)
Dew point-10.6°C (12.9°F)
Winds 10 kts (5.1 m/s, 11.5 mph) West-Southwest (240°)
Wind gusts 18 kts (9.3 m/s, 20.7 mph)
Visibility10 mi. (16.1 km)
Clouds Sky clear
Altimeter30.11 in.Hg (1020 mB)
Relative humidity37 %
Density altitude-1,679 ft. (-512 m)
Sea-level pressure102.1 kPa (1021 mB, 30.14 in.Hg)
Remarks System requires maintenance
Automated weather observing station with precipitation discriminator
Flight conditions Visual Meteorological Conditions
Raw dataKORD 041851Z 24010G18KT 10SM CLR 03/M11 A3011 RMK AO2 SLP205 T00281106 $
An error has occurred. This application may no longer respond until reloaded. Reload 🗙